Minneapolis, Minnesota
Traffic Map
Current Weather Conditions
Minneapolis, Minnesota
Overcast
Overcast
41°
Feels Like: 33°
Wind Chill: 33° Ceiling: 800
Heat Index: 41° Visibility: 10mi
Dew Point: 37° Wind: 14mph
Humidity: 86% Direction: 290° (WNW)
Pressure: 29.83in Gusts: 0mph
Raw Report DataKMSP 210553Z 29012KT 10SM OVC008 05/03 A2983 RMK AO2 SLP105 T00500028 10128 20050 401280050 51039
Traffic Incident Summary
Active as of:
Severity:
Category:
InformationThere was an issue retrieving the traffic information for this location. Please try a different location or try again shortly.
Advertisements
Track Severe Weather on mobile